Wind From: 10-12-2017 19:04 Until: 11-12-2017 16:00 warning for: Wind Level: Orange info button

Power and phone distribution networks may be disrupted for relatively long periods., Roofs and chimneys can be damaged. , Tree branches may break. , Vehicles can be deported. , Traffic may be disrupted, particularly on secondary roads in forest areas. Limit your trips. , Limit your speed in highway driving, especially if you drive a vehicle or hitch sensitive to wind. , Do not go for walks in forests or along the coast., In town, be vigilant against possible falling objects., Do not work on roofs and do not touch any electrical line fallen on the ground., Store or secure sensitive objects to wind or likely to be damaged., Always install power generators outside buildings. 


Meteo18 Weather Cam more information Meteo18 Weather Cam


Thunder radar more information blitzortung!


Rain radar more information rain snow radar


Visit our other weather sites:

Template documentation
and downloads

And another site



Weather Underground History page Text

Daily Summary for November 4, 2017 Units:  Both    English   Metric
« Previous Day
Next Day »
Daily Weekly Monthly Yearly Custom
  High: Low: Average:
Temperature: 63.1 °F /  17.3 °C 45.1 °F /  7.3 °C 55.2 °F /  12.9 °C
Dew Point: 53.6 °F /  12.0 °C 44.4 °F /  6.9 °C 50.4 °F /  10.2 °C
Humidity: 97 % 69 % 85 %
Wind Speed: 11 mph /  17.7 km/h - 2.2 mph /  3.5 km/h
Wind Gust: 16 mph /  25.7 km/h - -
Wind:- - SW
Pressure: 29.9 in /  1012.4 hPa 29.8 in /  1009.7 hPa -
Precipitation: 0.04 in /  1.0 mm    
Historical Graphs
 
 
Tabular Data for November 4, 2017
Time Temperature Dew Point Pressure Wind Wind Speed Wind Gust Humidity Rainfall Rate (Hourly)
00:02 49.5 °F /  9.7 °C 47.3 °F /  8.5 °C 29.9 in /  1012.1 hPa WNW 1 mph /  1.6 km/h 2 mph /  3.2 km/h 92 % 0 in /  0.0 mm
00:07 48.9 °F /  9.4 °C 46.8 °F /  8.2 °C 29.9 in /  1012.4 hPa WNW 1 mph /  1.6 km/h 2 mph /  3.2 km/h 92 % 0 in /  0.0 mm
00:12 48.7 °F /  9.3 °C 46.8 °F /  8.2 °C 29.9 in /  1012.1 hPa Calm   1 mph /  1.6 km/h 93 % 0 in /  0.0 mm
00:17 48.9 °F /  9.4 °C 47.3 °F /  8.5 °C 29.9 in /  1012.1 hPa Calm   2 mph /  3.2 km/h 94 % 0 in /  0.0 mm
00:22 49.6 °F /  9.8 °C 48.2 °F /  9.0 °C 29.9 in /  1012.1 hPa WNW 2 mph /  3.2 km/h 2 mph /  3.2 km/h 95 % 0 in /  0.0 mm
00:27 49.3 °F /  9.6 °C 47.3 °F /  8.5 °C 29.9 in /  1012.1 hPa Calm   2 mph /  3.2 km/h 93 % 0 in /  0.0 mm
00:32 49.1 °F /  9.5 °C 47.1 °F /  8.4 °C 29.9 in /  1012.1 hPa Calm   2 mph /  3.2 km/h 93 % 0 in /  0.0 mm
00:37 49.5 °F /  9.7 °C 47.8 °F /  8.8 °C 29.9 in /  1012.1 hPa Calm   2 mph /  3.2 km/h 94 % 0 in /  0.0 mm
00:42 49.6 °F /  9.8 °C 48 °F /  8.9 °C 29.9 in /  1012.1 hPa Calm   1 mph /  1.6 km/h 94 % 0 in /  0.0 mm
00:47 49.5 °F /  9.7 °C 47.8 °F /  8.8 °C 29.9 in /  1012.1 hPa Calm   1 mph /  1.6 km/h 94 % 0 in /  0.0 mm
00:52 49.6 °F /  9.8 °C 48 °F /  8.9 °C 29.9 in /  1012.1 hPa Calm     94 % 0 in /  0.0 mm
00:57 49.6 °F /  9.8 °C 48 °F /  8.9 °C 29.9 in /  1012.1 hPa Calm     94 % 0 in /  0.0 mm
01:02 49.5 °F /  9.7 °C 47.5 °F /  8.6 °C 29.9 in /  1012.1 hPa Calm     93 % 0 in /  0.0 mm
01:07 49.3 °F /  9.6 °C 47.8 °F /  8.8 °C 29.9 in /  1012.1 hPa Calm     95 % 0 in /  0.0 mm
01:12 49.3 °F /  9.6 °C 47.7 °F /  8.7 °C 29.9 in /  1012.1 hPa SSW 1 mph /  1.6 km/h 1 mph /  1.6 km/h 94 % 0 in /  0.0 mm
01:17 49.6 °F /  9.8 °C 48 °F /  8.9 °C 29.9 in /  1011.7 hPa Calm   2 mph /  3.2 km/h 94 % 0 in /  0.0 mm
01:22 49.6 °F /  9.8 °C 48 °F /  8.9 °C 29.9 in /  1011.7 hPa Calm   2 mph /  3.2 km/h 94 % 0 in /  0.0 mm
01:27 49.6 °F /  9.8 °C 47.7 °F /  8.7 °C 29.9 in /  1011.7 hPa Calm   2 mph /  3.2 km/h 93 % 0 in /  0.0 mm
01:32 49.6 °F /  9.8 °C 47.7 °F /  8.7 °C 29.9 in /  1011.7 hPa Calm   1 mph /  1.6 km/h 93 % 0 in /  0.0 mm
01:37 49.5 °F /  9.7 °C 47.5 °F /  8.6 °C 29.9 in /  1011.7 hPa Calm   1 mph /  1.6 km/h 93 % 0 in /  0.0 mm
01:42 49.3 °F /  9.6 °C 47.3 °F /  8.5 °C 29.9 in /  1011.7 hPa Calm   1 mph /  1.6 km/h 93 % 0 in /  0.0 mm
01:47 49.1 °F /  9.5 °C 47.1 °F /  8.4 °C 29.9 in /  1011.7 hPa Calm   1 mph /  1.6 km/h 93 % 0 in /  0.0 mm
01:52 48.9 °F /  9.4 °C 46.9 °F /  8.3 °C 29.9 in /  1011.7 hPa Calm   1 mph /  1.6 km/h 93 % 0 in /  0.0 mm
01:57 48.9 °F /  9.4 °C 47.3 °F /  8.5 °C 29.9 in /  1012.1 hPa Calm     94 % 0 in /  0.0 mm
02:02 48.6 °F /  9.2 °C 46.6 °F /  8.1 °C 29.9 in /  1012.1 hPa Calm   1 mph /  1.6 km/h 93 % 0 in /  0.0 mm
02:07 48.4 °F /  9.1 °C 46.8 °F /  8.2 °C 29.9 in /  1011.7 hPa Calm   1 mph /  1.6 km/h 94 % 0 in /  0.0 mm
02:12 48.4 °F /  9.1 °C 46.8 °F /  8.2 °C 29.9 in /  1011.7 hPa Calm   1 mph /  1.6 km/h 94 % 0 in /  0.0 mm
02:17 48.4 °F /  9.1 °C 46.8 °F /  8.2 °C 29.9 in /  1012.1 hPa Calm     94 % 0 in /  0.0 mm
02:22 48.6 °F /  9.2 °C 47.1 °F /  8.4 °C 29.9 in /  1012.1 hPa Calm   1 mph /  1.6 km/h 95 % 0 in /  0.0 mm
02:27 48.4 °F /  9.1 °C 46.9 °F /  8.3 °C 29.9 in /  1011.7 hPa Calm   1 mph /  1.6 km/h 95 % 0 in /  0.0 mm
02:37 48.2 °F /  9.0 °C 46.8 °F /  8.2 °C 29.9 in /  1011.7 hPa Calm   1 mph /  1.6 km/h 95 % 0 in /  0.0 mm
02:47 47.7 °F /  8.7 °C 46 °F /  7.8 °C 29.9 in /  1012.1 hPa Calm     94 % 0 in /  0.0 mm
02:52 47.7 °F /  8.7 °C 46 °F /  7.8 °C 29.9 in /  1011.7 hPa Calm     94 % 0 in /  0.0 mm
08:12 45.1 °F /  7.3 °C 44.4 °F /  6.9 °C 29.9 in /  1011.7 hPa Calm     97 % 0 in /  0 mm
08:17 45.1 °F /  7.3 °C 44.4 °F /  6.9 °C 29.9 in /  1011.7 hPa Calm   1 mph /  1.6 km/h 97 % 0 in /  0.0 mm
08:22 45.9 °F /  7.7 °C 45.1 °F /  7.3 °C 29.9 in /  1011.7 hPa Calm   1 mph /  1.6 km/h 97 % 0 in /  0.0 mm
08:27 46 °F /  7.8 °C 45.3 °F /  7.4 °C 29.9 in /  1011.7 hPa Calm   1 mph /  1.6 km/h 97 % 0 in /  0.0 mm
08:32 46 °F /  7.8 °C 45.3 °F /  7.4 °C 29.9 in /  1011.7 hPa Calm     97 % 0 in /  0.0 mm
08:37 46.2 °F /  7.9 °C 45.5 °F /  7.5 °C 29.9 in /  1011.7 hPa Calm     97 % 0 in /  0.0 mm
08:42 46.4 °F /  8.0 °C 45.7 °F /  7.6 °C 29.9 in /  1011.7 hPa Calm   1 mph /  1.6 km/h 97 % 0 in /  0.0 mm
08:47 46.8 °F /  8.2 °C 46 °F /  7.8 °C 29.9 in /  1011.7 hPa SW 2 mph /  3.2 km/h 2 mph /  3.2 km/h 97 % 0 in /  0.0 mm
08:52 47.1 °F /  8.4 °C 46.4 °F /  8.0 °C 29.9 in /  1011.7 hPa Calm   2 mph /  3.2 km/h 97 % 0 in /  0.0 mm
08:57 47.3 °F /  8.5 °C 46.6 °F /  8.1 °C 29.9 in /  1011.7 hPa Calm   2 mph /  3.2 km/h 97 % 0.01 in /  0.3 mm
09:02 47.3 °F /  8.5 °C 46.6 °F /  8.1 °C 29.9 in /  1011.7 hPa Calm   2 mph /  3.2 km/h 97 % 0.01 in /  0.3 mm
09:07 47.7 °F /  8.7 °C 46.6 °F /  8.1 °C 29.9 in /  1011.7 hPa Calm   1 mph /  1.6 km/h 96 % 0.01 in /  0.3 mm
09:12 47.8 °F /  8.8 °C 46.8 °F /  8.2 °C 29.9 in /  1011.7 hPa Calm   2 mph /  3.2 km/h 96 % 0.01 in /  0.3 mm
09:17 48.2 °F /  9.0 °C 47.1 °F /  8.4 °C 29.9 in /  1011.7 hPa Calm   2 mph /  3.2 km/h 96 % 0.01 in /  0.3 mm
09:22 48.6 °F /  9.2 °C 47.5 °F /  8.6 °C 29.9 in /  1011.7 hPa Calm   2 mph /  3.2 km/h 96 % 0.01 in /  0.3 mm
09:32 49.3 °F /  9.6 °C 47.8 °F /  8.8 °C 29.9 in /  1012.1 hPa West 1 mph /  1.6 km/h 2 mph /  3.2 km/h 95 % 0.01 in /  0.3 mm
09:37 49.6 °F /  9.8 °C 48.2 °F /  9.0 °C 29.9 in /  1012.1 hPa Calm   2 mph /  3.2 km/h 95 % 0.01 in /  0.3 mm
09:42 50.2 °F /  10.1 °C 48.6 °F /  9.2 °C 29.9 in /  1012.1 hPa Calm   2 mph /  3.2 km/h 94 % 0.01 in /  0.3 mm
09:47 50.7 °F /  10.4 °C 49.1 °F /  9.5 °C 29.9 in /  1012.1 hPa Calm   1 mph /  1.6 km/h 94 % 0.01 in /  0.3 mm
09:52 51.4 °F /  10.8 °C 49.3 °F /  9.6 °C 29.9 in /  1012.1 hPa SW 2 mph /  3.2 km/h 2 mph /  3.2 km/h 92 % 0.01 in /  0.3 mm
09:57 51.6 °F /  10.9 °C 48.7 °F /  9.3 °C 29.9 in /  1011.7 hPa SW 1 mph /  1.6 km/h 3 mph /  4.8 km/h 90 % 0 in /  0.0 mm
10:02 52 °F /  11.1 °C 49.1 °F /  9.5 °C 29.9 in /  1011.7 hPa SSW 1 mph /  1.6 km/h 3 mph /  4.8 km/h 90 % 0 in /  0.0 mm
10:07 52.3 °F /  11.3 °C 49.3 °F /  9.6 °C 29.9 in /  1011.7 hPa SSW 2 mph /  3.2 km/h 3 mph /  4.8 km/h 89 % 0 in /  0.0 mm
10:12 52.9 °F /  11.6 °C 49.6 °F /  9.8 °C 29.9 in /  1012.1 hPa Calm   3 mph /  4.8 km/h 89 % 0 in /  0.0 mm
10:17 53.6 °F /  12.0 °C 50.2 °F /  10.1 °C 29.9 in /  1011.7 hPa SSE 2 mph /  3.2 km/h 3 mph /  4.8 km/h 88 % 0 in /  0.0 mm
10:22 54.3 °F /  12.4 °C 50.9 °F /  10.5 °C 29.9 in /  1011.7 hPa SE 1 mph /  1.6 km/h 3 mph /  4.8 km/h 88 % 0 in /  0.0 mm
10:27 54.7 °F /  12.6 °C 50.2 °F /  10.1 °C 29.9 in /  1011.7 hPa SSW 3 mph /  4.8 km/h 5 mph /  8.0 km/h 85 % 0 in /  0.0 mm
10:32 54.9 °F /  12.7 °C 50.4 °F /  10.2 °C 29.9 in /  1011.7 hPa SSW 2 mph /  3.2 km/h 5 mph /  8.0 km/h 85 % 0 in /  0.0 mm
10:37 55.2 °F /  12.9 °C 50.7 °F /  10.4 °C 29.9 in /  1012.1 hPa SW 1 mph /  1.6 km/h 5 mph /  8.0 km/h 85 % 0 in /  0.0 mm
10:42 55.9 °F /  13.3 °C 51.3 °F /  10.7 °C 29.9 in /  1011.7 hPa SSW 1 mph /  1.6 km/h 5 mph /  8.0 km/h 84 % 0 in /  0.0 mm
10:47 56.5 °F /  13.6 °C 51.4 °F /  10.8 °C 29.9 in /  1012.1 hPa SSW 4 mph /  6.4 km/h 4 mph /  6.4 km/h 83 % 0 in /  0.0 mm
10:52 56.7 °F /  13.7 °C 51.3 °F /  10.7 °C 29.9 in /  1012.1 hPa SW 3 mph /  4.8 km/h 5 mph /  8.0 km/h 82 % 0 in /  0.0 mm
10:57 56.8 °F /  13.8 °C 51.1 °F /  10.6 °C 29.9 in /  1012.1 hPa SW 5 mph /  8.0 km/h 5 mph /  8.0 km/h 81 % 0 in /  0.0 mm
11:02 57.4 °F /  14.1 °C 51.6 °F /  10.9 °C 29.9 in /  1012.1 hPa SW 1 mph /  1.6 km/h 5 mph /  8.0 km/h 81 % 0 in /  0.0 mm
11:07 57.7 °F /  14.3 °C 52 °F /  11.1 °C 29.9 in /  1012.1 hPa SW 6 mph /  9.7 km/h 6 mph /  9.7 km/h 81 % 0 in /  0.0 mm
11:12 58.5 °F /  14.7 °C 50.9 °F /  10.5 °C 29.9 in /  1012.1 hPa WSW 10 mph /  16.1 km/h 10 mph /  16.1 km/h 76 % 0 in /  0.0 mm
11:17 58.6 °F /  14.8 °C 51.1 °F /  10.6 °C 29.9 in /  1011.7 hPa SW 6 mph /  9.7 km/h 13 mph /  20.9 km/h 76 % 0 in /  0.0 mm
11:22 59.2 °F /  15.1 °C 51.3 °F /  10.7 °C 29.9 in /  1011.7 hPa SW 4 mph /  6.4 km/h 13 mph /  20.9 km/h 75 % 0 in /  0.0 mm
11:27 59.5 °F /  15.3 °C 51.6 °F /  10.9 °C 29.9 in /  1011.7 hPa WSW 9 mph /  14.5 km/h 13 mph /  20.9 km/h 75 % 0 in /  0.0 mm
11:32 59.5 °F /  15.3 °C 50.9 °F /  10.5 °C 29.9 in /  1011.7 hPa WSW 8 mph /  12.9 km/h 10 mph /  16.1 km/h 73 % 0 in /  0.0 mm
11:37 59.5 °F /  15.3 °C 50.9 °F /  10.5 °C 29.9 in /  1011.7 hPa SW 9 mph /  14.5 km/h 12 mph /  19.3 km/h 73 % 0 in /  0.0 mm
11:42 59.7 °F /  15.4 °C 51.1 °F /  10.6 °C 29.9 in /  1011.7 hPa WSW 9 mph /  14.5 km/h 14 mph /  22.5 km/h 73 % 0 in /  0.0 mm
11:47 59.7 °F /  15.4 °C 51.1 °F /  10.6 °C 29.9 in /  1011.7 hPa SW 10 mph /  16.1 km/h 14 mph /  22.5 km/h 73 % 0 in /  0.0 mm
11:52 59.9 °F /  15.5 °C 51.6 °F /  10.9 °C 29.9 in /  1011.7 hPa SW 6 mph /  9.7 km/h 14 mph /  22.5 km/h 74 % 0 in /  0.0 mm
11:57 60.1 °F /  15.6 °C 51.8 °F /  11.0 °C 29.9 in /  1011.7 hPa South 7 mph /  11.3 km/h 16 mph /  25.7 km/h 74 % 0 in /  0.0 mm
12:07 60.3 °F /  15.7 °C 52 °F /  11.1 °C 29.9 in /  1011.4 hPa WSW 7 mph /  11.3 km/h 16 mph /  25.7 km/h 74 % 0 in /  0.0 mm
12:12 60.3 °F /  15.7 °C 52 °F /  11.1 °C 29.9 in /  1011.4 hPa West 6 mph /  9.7 km/h 13 mph /  20.9 km/h 74 % 0 in /  0.0 mm
12:17 60.4 °F /  15.8 °C 52.2 °F /  11.2 °C 29.9 in /  1011.4 hPa SSW 3 mph /  4.8 km/h 14 mph /  22.5 km/h 74 % 0 in /  0.0 mm
12:22 60.6 °F /  15.9 °C 52.7 °F /  11.5 °C 29.9 in /  1011.4 hPa SW 5 mph /  8.0 km/h 14 mph /  22.5 km/h 75 % 0 in /  0.0 mm
12:27 61 °F /  16.1 °C 52.7 °F /  11.5 °C 29.9 in /  1011.4 hPa SW 11 mph /  17.7 km/h 12 mph /  19.3 km/h 74 % 0 in /  0.0 mm
12:32 61.2 °F /  16.2 °C 52.9 °F /  11.6 °C 29.9 in /  1011.4 hPa WSW 8 mph /  12.9 km/h 13 mph /  20.9 km/h 74 % 0 in /  0.0 mm
12:37 61.3 °F /  16.3 °C 53.1 °F /  11.7 °C 29.9 in /  1011.1 hPa SW 6 mph /  9.7 km/h 14 mph /  22.5 km/h 74 % 0 in /  0.0 mm
12:42 61.3 °F /  16.3 °C 53.1 °F /  11.7 °C 29.9 in /  1011.1 hPa WSW 7 mph /  11.3 km/h 14 mph /  22.5 km/h 74 % 0 in /  0.0 mm
12:47 61.2 °F /  16.2 °C 52.9 °F /  11.6 °C 29.9 in /  1011.1 hPa WSW 11 mph /  17.7 km/h 11 mph /  17.7 km/h 74 % 0 in /  0.0 mm
12:52 61.2 °F /  16.2 °C 52.9 °F /  11.6 °C 29.9 in /  1011.1 hPa WSW 11 mph /  17.7 km/h 13 mph /  20.9 km/h 74 % 0 in /  0.0 mm
12:57 61.2 °F /  16.2 °C 52.9 °F /  11.6 °C 29.9 in /  1011.1 hPa West 6 mph /  9.7 km/h 13 mph /  20.9 km/h 74 % 0 in /  0.0 mm
13:02 61 °F /  16.1 °C 52.7 °F /  11.5 °C 29.9 in /  1011.1 hPa West 6 mph /  9.7 km/h 13 mph /  20.9 km/h 74 % 0 in /  0.0 mm
13:12 61 °F /  16.1 °C 53.1 °F /  11.7 °C 29.9 in /  1011.1 hPa WSW 7 mph /  11.3 km/h 12 mph /  19.3 km/h 75 % 0 in /  0.0 mm
13:17 60.6 °F /  15.9 °C 52.7 °F /  11.5 °C 29.9 in /  1011.1 hPa SSW 5 mph /  8.0 km/h 12 mph /  19.3 km/h 75 % 0 in /  0.0 mm
13:22 60.6 °F /  15.9 °C 53.1 °F /  11.7 °C 29.9 in /  1011.1 hPa SSW 5 mph /  8.0 km/h 12 mph /  19.3 km/h 76 % 0 in /  0.0 mm
13:27 60.6 °F /  15.9 °C 53.1 °F /  11.7 °C 29.9 in /  1011.1 hPa West 5 mph /  8.0 km/h 12 mph /  19.3 km/h 76 % 0 in /  0.0 mm
13:32 60.8 °F /  16.0 °C 53.2 °F /  11.8 °C 29.8 in /  1010.7 hPa SSW 6 mph /  9.7 km/h 12 mph /  19.3 km/h 76 % 0 in /  0.0 mm
13:37 61.2 °F /  16.2 °C 53.2 °F /  11.8 °C 29.8 in /  1010.7 hPa SW 6 mph /  9.7 km/h 11 mph /  17.7 km/h 75 % 0 in /  0.0 mm
13:42 61.3 °F /  16.3 °C 53.1 °F /  11.7 °C 29.8 in /  1010.7 hPa WSW 6 mph /  9.7 km/h 11 mph /  17.7 km/h 74 % 0 in /  0.0 mm
13:47 61.9 °F /  16.6 °C 53.1 °F /  11.7 °C 29.8 in /  1010.7 hPa SW 5 mph /  8.0 km/h 15 mph /  24.1 km/h 73 % 0 in /  0.0 mm
13:52 62.2 °F /  16.8 °C 53.4 °F /  11.9 °C 29.8 in /  1010.7 hPa SW 6 mph /  9.7 km/h 15 mph /  24.1 km/h 73 % 0 in /  0.0 mm
13:57 62.4 °F /  16.9 °C 52.9 °F /  11.6 °C 29.8 in /  1010.7 hPa WNW 4 mph /  6.4 km/h 15 mph /  24.1 km/h 71 % 0 in /  0.0 mm
14:02 62.8 °F /  17.1 °C 52.9 °F /  11.6 °C 29.8 in /  1010.4 hPa West 8 mph /  12.9 km/h 13 mph /  20.9 km/h 70 % 0 in /  0.0 mm
14:07 62.8 °F /  17.1 °C 52.9 °F /  11.6 °C 29.8 in /  1010.4 hPa West 6 mph /  9.7 km/h 13 mph /  20.9 km/h 70 % 0 in /  0.0 mm
14:12 62.6 °F /  17.0 °C 53.1 °F /  11.7 °C 29.8 in /  1010.4 hPa WSW 5 mph /  8.0 km/h 15 mph /  24.1 km/h 71 % 0 in /  0.0 mm
14:17 62.4 °F /  16.9 °C 52.9 °F /  11.6 °C 29.8 in /  1010.4 hPa SSW 5 mph /  8.0 km/h 15 mph /  24.1 km/h 71 % 0 in /  0.0 mm
14:22 62.6 °F /  17.0 °C 53.1 °F /  11.7 °C 29.8 in /  1010.4 hPa SW 8 mph /  12.9 km/h 12 mph /  19.3 km/h 71 % 0 in /  0.0 mm
14:27 62.4 °F /  16.9 °C 53.2 °F /  11.8 °C 29.8 in /  1010.4 hPa SW 10 mph /  16.1 km/h 10 mph /  16.1 km/h 72 % 0 in /  0.0 mm
14:32 62.4 °F /  16.9 °C 52.9 °F /  11.6 °C 29.8 in /  1010.0 hPa SW 7 mph /  11.3 km/h 11 mph /  17.7 km/h 71 % 0 in /  0.0 mm
14:37 62.8 °F /  17.1 °C 53.2 °F /  11.8 °C 29.8 in /  1010.0 hPa SW 9 mph /  14.5 km/h 11 mph /  17.7 km/h 71 % 0 in /  0.0 mm
14:42 62.6 °F /  17.0 °C 53.1 °F /  11.7 °C 29.8 in /  1010.0 hPa SW 3 mph /  4.8 km/h 11 mph /  17.7 km/h 71 % 0 in /  0.0 mm
14:47 62.8 °F /  17.1 °C 53.6 °F /  12.0 °C 29.8 in /  1010.0 hPa WSW 3 mph /  4.8 km/h 11 mph /  17.7 km/h 72 % 0 in /  0.0 mm
14:52 63 °F /  17.2 °C 53.1 °F /  11.7 °C 29.8 in /  1010.0 hPa SW 10 mph /  16.1 km/h 10 mph /  16.1 km/h 70 % 0 in /  0.0 mm
14:57 63 °F /  17.2 °C 53.1 °F /  11.7 °C 29.8 in /  1010.0 hPa SSW 3 mph /  4.8 km/h 11 mph /  17.7 km/h 70 % 0 in /  0.0 mm
15:02 63.1 °F /  17.3 °C 53.2 °F /  11.8 °C 29.8 in /  1010.0 hPa WSW 7 mph /  11.3 km/h 12 mph /  19.3 km/h 70 % 0 in /  0.0 mm
15:07 63.1 °F /  17.3 °C 53.2 °F /  11.8 °C 29.8 in /  1010.0 hPa WSW 5 mph /  8.0 km/h 12 mph /  19.3 km/h 70 % 0 in /  0.0 mm
15:12 63.1 °F /  17.3 °C 52.9 °F /  11.6 °C 29.8 in /  1010.0 hPa WSW 6 mph /  9.7 km/h 12 mph /  19.3 km/h 69 % 0 in /  0.0 mm
15:17 63.1 °F /  17.3 °C 52.9 °F /  11.6 °C 29.8 in /  1010.0 hPa WSW 7 mph /  11.3 km/h 11 mph /  17.7 km/h 69 % 0 in /  0.0 mm
15:22 63 °F /  17.2 °C 52.7 °F /  11.5 °C 29.8 in /  1010.0 hPa SW 8 mph /  12.9 km/h 11 mph /  17.7 km/h 69 % 0 in /  0.0 mm
15:32 63 °F /  17.2 °C 53.1 °F /  11.7 °C 29.8 in /  1010.0 hPa SW 6 mph /  9.7 km/h 12 mph /  19.3 km/h 70 % 0 in /  0.0 mm
15:42 63 °F /  17.2 °C 53.1 °F /  11.7 °C 29.8 in /  1010.0 hPa West 5 mph /  8.0 km/h 12 mph /  19.3 km/h 70 % 0 in /  0.0 mm
15:52 62.8 °F /  17.1 °C 52.9 °F /  11.6 °C 29.8 in /  1010.0 hPa SW 6 mph /  9.7 km/h 11 mph /  17.7 km/h 70 % 0 in /  0.0 mm
15:57 62.8 °F /  17.1 °C 53.2 °F /  11.8 °C 29.8 in /  1010.0 hPa SW 4 mph /  6.4 km/h 9 mph /  14.5 km/h 71 % 0 in /  0.0 mm
16:02 62.4 °F /  16.9 °C 52.9 °F /  11.6 °C 29.8 in /  1010.0 hPa West 2 mph /  3.2 km/h 9 mph /  14.5 km/h 71 % 0 in /  0.0 mm
16:12 62.1 °F /  16.7 °C 52.9 °F /  11.6 °C 29.8 in /  1009.7 hPa WSW 5 mph /  8.0 km/h 8 mph /  12.9 km/h 72 % 0 in /  0.0 mm
16:17 61.9 °F /  16.6 °C 53.1 °F /  11.7 °C 29.8 in /  1009.7 hPa SW 3 mph /  4.8 km/h 8 mph /  12.9 km/h 73 % 0 in /  0.0 mm
16:22 61.7 °F /  16.5 °C 52.9 °F /  11.6 °C 29.8 in /  1009.7 hPa SSW 2 mph /  3.2 km/h 7 mph /  11.3 km/h 73 % 0 in /  0.0 mm
16:27 61.5 °F /  16.4 °C 52.7 °F /  11.5 °C 29.8 in /  1009.7 hPa SW 4 mph /  6.4 km/h 7 mph /  11.3 km/h 73 % 0 in /  0.0 mm
16:32 61.3 °F /  16.3 °C 52.7 °F /  11.5 °C 29.8 in /  1009.7 hPa Calm   7 mph /  11.3 km/h 73 % 0 in /  0.0 mm
16:37 61.2 °F /  16.2 °C 52.9 °F /  11.6 °C 29.8 in /  1009.7 hPa SW 3 mph /  4.8 km/h 6 mph /  9.7 km/h 74 % 0 in /  0.0 mm
16:42 61.2 °F /  16.2 °C 52.9 °F /  11.6 °C 29.8 in /  1010.0 hPa SW 1 mph /  1.6 km/h 6 mph /  9.7 km/h 74 % 0 in /  0.0 mm
16:47 61 °F /  16.1 °C 52.7 °F /  11.5 °C 29.8 in /  1010.0 hPa WSW 4 mph /  6.4 km/h 5 mph /  8.0 km/h 74 % 0 in /  0.0 mm
16:52 60.6 °F /  15.9 °C 52.7 °F /  11.5 °C 29.8 in /  1010.0 hPa SW 1 mph /  1.6 km/h 5 mph /  8.0 km/h 75 % 0 in /  0.0 mm
16:57 60.4 °F /  15.8 °C 52.5 °F /  11.4 °C 29.8 in /  1010.0 hPa SW 1 mph /  1.6 km/h 5 mph /  8.0 km/h 75 % 0 in /  0.0 mm
17:02 60.1 °F /  15.6 °C 52.5 °F /  11.4 °C 29.8 in /  1010.0 hPa SSW 1 mph /  1.6 km/h 4 mph /  6.4 km/h 76 % 0 in /  0.0 mm
17:07 59.5 °F /  15.3 °C 52.3 °F /  11.3 °C 29.8 in /  1010.0 hPa Calm   3 mph /  4.8 km/h 77 % 0 in /  0.0 mm
17:12 59.4 °F /  15.2 °C 52.2 °F /  11.2 °C 29.8 in /  1010.0 hPa Calm   2 mph /  3.2 km/h 77 % 0 in /  0.0 mm
17:17 59.2 °F /  15.1 °C 52.3 °F /  11.3 °C 29.8 in /  1010.0 hPa Calm   1 mph /  1.6 km/h 78 % 0 in /  0.0 mm
17:22 59 °F /  15.0 °C 52.2 °F /  11.2 °C 29.8 in /  1010.0 hPa SSW 1 mph /  1.6 km/h 1 mph /  1.6 km/h 78 % 0 in /  0.0 mm
17:32 58.6 °F /  14.8 °C 52.2 °F /  11.2 °C 29.8 in /  1010.0 hPa SW 1 mph /  1.6 km/h 2 mph /  3.2 km/h 79 % 0 in /  0.0 mm
17:37 58.8 °F /  14.9 °C 52.3 °F /  11.3 °C 29.8 in /  1010.0 hPa SSW 1 mph /  1.6 km/h 3 mph /  4.8 km/h 79 % 0 in /  0.0 mm
17:42 59.2 °F /  15.1 °C 52.7 °F /  11.5 °C 29.8 in /  1010.0 hPa Calm   3 mph /  4.8 km/h 79 % 0 in /  0.0 mm
17:47 59.2 °F /  15.1 °C 52.7 °F /  11.5 °C 29.8 in /  1010.0 hPa Calm   3 mph /  4.8 km/h 79 % 0 in /  0.0 mm
17:57 59.2 °F /  15.1 °C 53.1 °F /  11.7 °C 29.8 in /  1010.0 hPa WSW 4 mph /  6.4 km/h 4 mph /  6.4 km/h 80 % 0 in /  0.0 mm
18:02 59 °F /  15.0 °C 52.9 °F /  11.6 °C 29.8 in /  1010.0 hPa SSW 1 mph /  1.6 km/h 4 mph /  6.4 km/h 80 % 0 in /  0.0 mm
18:07 58.6 °F /  14.8 °C 52.5 °F /  11.4 °C 29.8 in /  1010.0 hPa SSW 2 mph /  3.2 km/h 4 mph /  6.4 km/h 80 % 0 in /  0.0 mm
18:12 58.3 °F /  14.6 °C 52.5 °F /  11.4 °C 29.8 in /  1010.0 hPa South 3 mph /  4.8 km/h 4 mph /  6.4 km/h 81 % 0 in /  0.0 mm
18:17 58.3 °F /  14.6 °C 52.5 °F /  11.4 °C 29.8 in /  1010.0 hPa SW 2 mph /  3.2 km/h 4 mph /  6.4 km/h 81 % 0 in /  0.0 mm
18:22 57.9 °F /  14.4 °C 52.2 °F /  11.2 °C 29.8 in /  1010.0 hPa SSW 1 mph /  1.6 km/h 4 mph /  6.4 km/h 81 % 0 in /  0.0 mm
18:27 57.7 °F /  14.3 °C 52.3 °F /  11.3 °C 29.8 in /  1010.0 hPa SSW 1 mph /  1.6 km/h 4 mph /  6.4 km/h 82 % 0 in /  0.0 mm
18:32 57.9 °F /  14.4 °C 52.7 °F /  11.5 °C 29.8 in /  1010.0 hPa WSW 1 mph /  1.6 km/h 4 mph /  6.4 km/h 83 % 0 in /  0.0 mm
18:37 57.9 °F /  14.4 °C 52.5 °F /  11.4 °C 29.8 in /  1010.0 hPa WNW 1 mph /  1.6 km/h 3 mph /  4.8 km/h 82 % 0 in /  0.0 mm
18:42 57.9 °F /  14.4 °C 52.7 °F /  11.5 °C 29.8 in /  1010.0 hPa West 2 mph /  3.2 km/h 3 mph /  4.8 km/h 83 % 0 in /  0.0 mm
18:47 57.7 °F /  14.3 °C 52.7 °F /  11.5 °C 29.8 in /  1010.4 hPa West 1 mph /  1.6 km/h 3 mph /  4.8 km/h 83 % 0 in /  0.0 mm
18:52 57.7 °F /  14.3 °C 52.7 °F /  11.5 °C 29.8 in /  1010.4 hPa WSW 1 mph /  1.6 km/h 3 mph /  4.8 km/h 83 % 0 in /  0.0 mm
18:57 57.6 °F /  14.2 °C 52.5 °F /  11.4 °C 29.8 in /  1010.4 hPa Calm   3 mph /  4.8 km/h 83 % 0 in /  0.0 mm
19:02 57.4 °F /  14.1 °C 52.5 °F /  11.4 °C 29.8 in /  1010.4 hPa Calm   1 mph /  1.6 km/h 84 % 0 in /  0.0 mm
19:07 57.4 °F /  14.1 °C 52.3 °F /  11.3 °C 29.8 in /  1010.4 hPa North 1 mph /  1.6 km/h 1 mph /  1.6 km/h 83 % 0 in /  0.0 mm
19:12 57.4 °F /  14.1 °C 52.5 °F /  11.4 °C 29.8 in /  1010.7 hPa NNW 1 mph /  1.6 km/h 2 mph /  3.2 km/h 84 % 0 in /  0.0 mm
19:17 57 °F /  13.9 °C 52.2 °F /  11.2 °C 29.8 in /  1010.7 hPa NW 3 mph /  4.8 km/h 5 mph /  8.0 km/h 84 % 0 in /  0.0 mm
19:22 57 °F /  13.9 °C 52.2 °F /  11.2 °C 29.8 in /  1010.7 hPa Calm   5 mph /  8.0 km/h 84 % 0 in /  0.0 mm
19:27 56.8 °F /  13.8 °C 52 °F /  11.1 °C 29.8 in /  1010.7 hPa North 1 mph /  1.6 km/h 5 mph /  8.0 km/h 84 % 0 in /  0.0 mm
19:32 56.8 °F /  13.8 °C 52 °F /  11.1 °C 29.8 in /  1010.7 hPa Calm   4 mph /  6.4 km/h 84 % 0 in /  0.0 mm
19:37 56.8 °F /  13.8 °C 52 °F /  11.1 °C 29.8 in /  1010.7 hPa Calm   2 mph /  3.2 km/h 84 % 0 in /  0.0 mm
19:42 56.5 °F /  13.6 °C 51.6 °F /  10.9 °C 29.8 in /  1010.7 hPa Calm   2 mph /  3.2 km/h 84 % 0 in /  0.0 mm
19:47 56.1 °F /  13.4 °C 51.6 °F /  10.9 °C 29.8 in /  1010.7 hPa Calm   2 mph /  3.2 km/h 85 % 0 in /  0.0 mm
19:52 55.9 °F /  13.3 °C 51.4 °F /  10.8 °C 29.8 in /  1010.7 hPa Calm   1 mph /  1.6 km/h 85 % 0 in /  0.0 mm
19:57 55.9 °F /  13.3 °C 51.8 °F /  11.0 °C 29.8 in /  1010.7 hPa Calm   1 mph /  1.6 km/h 86 % 0 in /  0.0 mm
20:02 55.8 °F /  13.2 °C 51.6 °F /  10.9 °C 29.8 in /  1010.4 hPa Calm   2 mph /  3.2 km/h 86 % 0 in /  0.0 mm
20:07 55.8 °F /  13.2 °C 51.6 °F /  10.9 °C 29.8 in /  1010.4 hPa Calm   2 mph /  3.2 km/h 86 % 0 in /  0.0 mm
20:12 55.2 °F /  12.9 °C 50.7 °F /  10.4 °C 29.8 in /  1010.4 hPa Calm     85 % 0 in /  0.0 mm
20:17 54.7 °F /  12.6 °C 50.9 °F /  10.5 °C 29.8 in /  1010.4 hPa Calm   1 mph /  1.6 km/h 87 % 0 in /  0.0 mm
20:22 54.7 °F /  12.6 °C 51.3 °F /  10.7 °C 29.8 in /  1010.4 hPa Calm   1 mph /  1.6 km/h 88 % 0 in /  0.0 mm
20:27 54.7 °F /  12.6 °C 51.3 °F /  10.7 °C 29.8 in /  1010.0 hPa Calm   1 mph /  1.6 km/h 88 % 0 in /  0.0 mm
20:32 54.7 °F /  12.6 °C 51.3 °F /  10.7 °C 29.8 in /  1010.0 hPa Calm     88 % 0 in /  0.0 mm
20:37 54.3 °F /  12.4 °C 50.9 °F /  10.5 °C 29.8 in /  1010.4 hPa WNW 1 mph /  1.6 km/h 2 mph /  3.2 km/h 88 % 0 in /  0.0 mm
20:42 53.8 °F /  12.1 °C 50.5 °F /  10.3 °C 29.8 in /  1010.4 hPa Calm   2 mph /  3.2 km/h 89 % 0 in /  0.0 mm
20:47 53.4 °F /  11.9 °C 50.2 °F /  10.1 °C 29.8 in /  1010.4 hPa North 2 mph /  3.2 km/h 2 mph /  3.2 km/h 89 % 0 in /  0.0 mm
20:52 53.2 °F /  11.8 °C 50.4 °F /  10.2 °C 29.8 in /  1010.4 hPa Calm   2 mph /  3.2 km/h 90 % 0 in /  0.0 mm
20:57 52.9 °F /  11.6 °C 50 °F /  10.0 °C 29.8 in /  1010.4 hPa NNE 1 mph /  1.6 km/h 2 mph /  3.2 km/h 90 % 0 in /  0.0 mm
21:02 53.1 °F /  11.7 °C 50.5 °F /  10.3 °C 29.8 in /  1010.4 hPa Calm   2 mph /  3.2 km/h 91 % 0 in /  0.0 mm
21:07 53.2 °F /  11.8 °C 50.7 °F /  10.4 °C 29.8 in /  1010.4 hPa Calm   2 mph /  3.2 km/h 91 % 0 in /  0.0 mm
21:12 53.2 °F /  11.8 °C 50.4 °F /  10.2 °C 29.8 in /  1010.4 hPa Calm   2 mph /  3.2 km/h 90 % 0 in /  0.0 mm
21:17 52.7 °F /  11.5 °C 49.8 °F /  9.9 °C 29.8 in /  1010.4 hPa Calm   1 mph /  1.6 km/h 90 % 0 in /  0.0 mm
21:22 52.3 °F /  11.3 °C 49.5 °F /  9.7 °C 29.8 in /  1010.4 hPa SSE 1 mph /  1.6 km/h 1 mph /  1.6 km/h 90 % 0 in /  0.0 mm
21:32 52 °F /  11.1 °C 49.5 °F /  9.7 °C 29.8 in /  1010.4 hPa Calm   1 mph /  1.6 km/h 91 % 0 in /  0.0 mm
21:37 52 °F /  11.1 °C 49.6 °F /  9.8 °C 29.8 in /  1010.4 hPa Calm   1 mph /  1.6 km/h 92 % 0 in /  0.0 mm
21:42 52 °F /  11.1 °C 49.6 °F /  9.8 °C 29.8 in /  1010.4 hPa Calm     92 % 0 in /  0.0 mm
21:47 52.2 °F /  11.2 °C 50.2 °F /  10.1 °C 29.8 in /  1010.4 hPa Calm   1 mph /  1.6 km/h 93 % 0 in /  0.0 mm
21:52 52.2 °F /  11.2 °C 49.8 °F /  9.9 °C 29.8 in /  1010.0 hPa Calm   1 mph /  1.6 km/h 92 % 0 in /  0.0 mm
21:57 52.2 °F /  11.2 °C 49.8 °F /  9.9 °C 29.8 in /  1010.0 hPa Calm   1 mph /  1.6 km/h 92 % 0 in /  0.0 mm
22:02 52.2 °F /  11.2 °C 49.8 °F /  9.9 °C 29.8 in /  1010.0 hPa Calm   1 mph /  1.6 km/h 92 % 0 in /  0.0 mm
22:07 52.2 °F /  11.2 °C 49.8 °F /  9.9 °C 29.8 in /  1010.0 hPa WNW 1 mph /  1.6 km/h 1 mph /  1.6 km/h 92 % 0 in /  0.0 mm
22:12 52.3 °F /  11.3 °C 50.4 °F /  10.2 °C 29.8 in /  1010.0 hPa WNW 1 mph /  1.6 km/h 2 mph /  3.2 km/h 93 % 0 in /  0.0 mm
22:17 52.5 °F /  11.4 °C 50.2 °F /  10.1 °C 29.8 in /  1010.0 hPa Calm   2 mph /  3.2 km/h 92 % 0 in /  0.0 mm
22:22 52.5 °F /  11.4 °C 50.2 °F /  10.1 °C 29.8 in /  1010.0 hPa Calm   1 mph /  1.6 km/h 92 % 0 in /  0.0 mm
22:27 52.5 °F /  11.4 °C 50.2 °F /  10.1 °C 29.8 in /  1010.0 hPa Calm   1 mph /  1.6 km/h 92 % 0 in /  0.0 mm
22:32 52.3 °F /  11.3 °C 50 °F /  10.0 °C 29.8 in /  1010.0 hPa Calm   1 mph /  1.6 km/h 92 % 0 in /  0.0 mm
22:37 52.2 °F /  11.2 °C 49.8 °F /  9.9 °C 29.8 in /  1010.0 hPa Calm   1 mph /  1.6 km/h 92 % 0 in /  0.0 mm
22:42 52 °F /  11.1 °C 49.6 °F /  9.8 °C 29.8 in /  1010.0 hPa SE 1 mph /  1.6 km/h   92 % 0 in /  0.0 mm
22:47 51.3 °F /  10.7 °C 48.7 °F /  9.3 °C 29.8 in /  1010.0 hPa Calm   2 mph /  3.2 km/h 91 % 0 in /  0.0 mm
22:52 51.1 °F /  10.6 °C 48.6 °F /  9.2 °C 29.8 in /  1010.0 hPa Calm   2 mph /  3.2 km/h 91 % 0 in /  0.0 mm
22:57 50.9 °F /  10.5 °C 48.7 °F /  9.3 °C 29.8 in /  1010.0 hPa Calm   2 mph /  3.2 km/h 92 % 0 in /  0.0 mm
23:02 50.9 °F /  10.5 °C 48.7 °F /  9.3 °C 29.8 in /  1009.7 hPa Calm     92 % 0 in /  0.0 mm
23:07 51.1 °F /  10.6 °C 48.9 °F /  9.4 °C 29.8 in /  1009.7 hPa Calm     92 % 0 in /  0.0 mm
23:12 50.9 °F /  10.5 °C 48.7 °F /  9.3 °C 29.8 in /  1010.0 hPa Calm     92 % 0 in /  0.0 mm
23:17 50.9 °F /  10.5 °C 48.9 °F /  9.4 °C 29.8 in /  1010.0 hPa Calm     93 % 0 in /  0.0 mm
23:22 50.9 °F /  10.5 °C 48.9 °F /  9.4 °C 29.8 in /  1010.0 hPa Calm     93 % 0 in /  0.0 mm
23:27 50.7 °F /  10.4 °C 48.7 °F /  9.3 °C 29.8 in /  1009.7 hPa Calm     93 % 0 in /  0.0 mm
23:32 50.9 °F /  10.5 °C 48.9 °F /  9.4 °C 29.8 in /  1010.0 hPa Calm     93 % 0 in /  0.0 mm
23:37 50.7 °F /  10.4 °C 48.7 °F /  9.3 °C 29.8 in /  1010.0 hPa Calm     93 % 0 in /  0.0 mm
23:42 50.7 °F /  10.4 °C 48.7 °F /  9.3 °C 29.8 in /  1010.0 hPa Calm     93 % 0.01 in /  0.3 mm
23:47 51.1 °F /  10.6 °C 49.5 °F /  9.7 °C 29.8 in /  1010.0 hPa SSW 1 mph /  1.6 km/h 1 mph /  1.6 km/h 94 % 0.03 in /  0.8 mm
23:52 51.3 °F /  10.7 °C 49.6 °F /  9.8 °C 29.8 in /  1010.0 hPa Calm   1 mph /  1.6 km/h 94 % 0.03 in /  0.8 mm
23:57 51.4 °F /  10.8 °C 49.8 °F /  9.9 °C 29.8 in /  1010.0 hPa Calm   1 mph /  1.6 km/h 94 % 0.03 in /  0.8 mm
Meteo18
Compliments of Weather Underground - 4 mb

Script developed by  Jim McMurry - jmcmurry@mwt.net Adapted for the template by  Wim van der Kuil - Leuven-Template.eu

You find our weather info also at:

European Weather Network

Weather Underground

Equipment we use:

Weather-station
Davis Vue

Weather-program
Meteohub

Weather-server
Raspberry PI 2 B+

Provider
1 and 1

Davis Vue

Meteohub

Raspberry PI 2 B+

1 and 1